createdAt,value
2023-01-04T00:01:51.101Z,2.30
2023-01-04T00:04:17.644Z,2.40
2023-01-04T00:06:44.187Z,2.10
2023-01-04T00:09:10.702Z,2.90
2023-01-04T00:11:37.307Z,2.83
2023-01-04T00:14:03.968Z,2.30
2023-01-04T00:16:30.737Z,2.45
2023-01-04T00:18:58.142Z,2.42
2023-01-04T00:21:27.197Z,2.60
2023-01-04T00:23:56.067Z,2.20
2023-01-04T00:26:25.594Z,1.85
2023-01-04T00:29:00.065Z,2.05
2023-01-04T00:31:27.987Z,2.10
2023-01-04T00:33:59.518Z,1.92
2023-01-04T00:36:26.933Z,2.08
2023-01-04T00:39:10.074Z,1.98
2023-01-04T00:42:00.264Z,2.33
2023-01-04T00:44:28.718Z,2.22
2023-01-04T00:46:55.308Z,2.33
2023-01-04T00:49:21.829Z,2.20
2023-01-04T00:51:48.363Z,2.05
2023-01-04T00:54:16.063Z,2.15
2023-01-04T00:56:42.831Z,2.17
2023-01-04T00:59:11.763Z,1.92
2023-01-04T01:01:39.626Z,1.38
2023-01-04T01:04:06.331Z,1.55
2023-01-04T01:06:34.411Z,1.45
2023-01-04T01:09:01.620Z,1.75
2023-01-04T01:11:29.176Z,2.17
2023-01-04T01:13:55.885Z,1.80
2023-01-04T01:16:51.603Z,1.63
2023-01-04T01:19:10.486Z,1.55
2023-01-04T01:21:38.003Z,1.33
2023-01-04T01:24:05.114Z,1.70
2023-01-04T01:26:32.077Z,1.38
2023-01-04T01:28:58.994Z,1.58
2023-01-04T01:31:27.870Z,1.85
2023-01-04T01:33:55.977Z,1.45
2023-01-04T01:36:24.662Z,1.50
2023-01-04T01:38:51.544Z,1.08
2023-01-04T01:41:21.576Z,1.42
2023-01-04T01:44:00.299Z,1.30
2023-01-04T01:46:32.612Z,1.58
2023-01-04T01:49:37.438Z,1.42
2023-01-04T01:52:07.019Z,1.40
2023-01-04T01:54:39.665Z,1.20
2023-01-04T01:57:09.481Z,1.80
2023-01-04T01:59:40.690Z,1.33
2023-01-04T02:02:07.460Z,1.27
2023-01-04T02:04:37.041Z,1.27
2023-01-04T02:07:04.314Z,1.05
2023-01-04T02:09:32.355Z,1.30
2023-01-04T02:11:58.900Z,1.23
2023-01-04T02:14:29.173Z,1.00
2023-01-04T02:17:13.637Z,1.33
2023-01-04T02:20:12.928Z,1.63
2023-01-04T02:22:45.480Z,1.45
2023-01-04T02:25:42.988Z,1.55
2023-01-04T02:28:16.017Z,1.10
2023-01-04T02:30:45.277Z,1.17
2023-01-04T02:33:30.820Z,1.30
2023-01-04T02:36:07.815Z,1.30
2023-01-04T02:38:36.860Z,1.33
2023-01-04T02:41:15.713Z,1.17
2023-01-04T02:44:14.538Z,1.15
2023-01-04T02:46:48.540Z,1.27
2023-01-04T02:49:33.493Z,1.15
2023-01-04T02:52:00.123Z,1.30
2023-01-04T02:54:32.694Z,1.20
2023-01-04T02:57:15.769Z,1.00
2023-01-04T02:59:50.951Z,1.08
2023-01-04T03:03:16.897Z,1.10
2023-01-04T03:06:16.992Z,1.20
2023-01-04T03:08:59.052Z,1.25
2023-01-04T03:11:52.955Z,1.23
2023-01-04T03:14:30.780Z,1.30
2023-01-04T03:17:00.290Z,1.55
2023-01-04T03:19:53.623Z,1.25
2023-01-04T03:22:48.720Z,1.00
2023-01-04T03:25:37.596Z,1.08
2023-01-04T03:28:25.288Z,1.05
2023-01-04T03:31:26.984Z,1.15
2023-01-04T03:34:12.710Z,1.00
2023-01-04T03:36:54.135Z,1.00
2023-01-04T03:39:45.538Z,1.20
2023-01-04T03:42:56.147Z,0.88
2023-01-04T03:45:43.987Z,1.17
2023-01-04T03:48:34.622Z,1.00
2023-01-04T03:51:10.156Z,1.13
2023-01-04T03:53:45.727Z,0.90
2023-01-04T03:56:13.126Z,0.70
2023-01-04T03:58:40.028Z,0.90
2023-01-04T04:01:07.284Z,0.98
2023-01-04T04:03:52.880Z,0.90
2023-01-04T04:06:38.147Z,1.23
2023-01-04T04:09:04.722Z,1.00
2023-01-04T04:11:31.270Z,0.80
2023-01-04T04:13:59.284Z,0.77
2023-01-04T04:16:26.845Z,0.80
2023-01-04T04:18:53.833Z,0.90
2023-01-04T04:21:20.347Z,1.15
2023-01-04T04:23:46.902Z,0.82
2023-01-04T04:26:13.480Z,0.80
2023-01-04T04:28:39.993Z,0.80
2023-01-04T04:31:06.701Z,0.93
2023-01-04T04:33:33.242Z,1.10
2023-01-04T04:35:59.839Z,0.85
2023-01-04T04:38:26.393Z,0.90
2023-01-04T04:41:11.271Z,1.00
2023-01-04T04:43:37.789Z,1.00
2023-01-04T04:46:04.675Z,1.17
2023-01-04T04:48:31.458Z,1.00
2023-01-04T04:50:57.995Z,0.90
2023-01-04T04:53:24.531Z,0.80
2023-01-04T04:55:51.977Z,0.90
2023-01-04T04:58:19.120Z,0.90
2023-01-04T05:00:45.703Z,0.90
2023-01-04T05:03:12.594Z,0.75
2023-01-04T05:05:39.130Z,0.75
2023-01-04T05:08:05.801Z,0.90
2023-01-04T05:10:32.344Z,1.08
2023-01-04T05:13:01.917Z,0.57
2023-01-04T05:15:41.399Z,0.70
2023-01-04T05:18:09.611Z,0.80
2023-01-04T05:20:36.410Z,0.88
2023-01-04T05:23:03.042Z,0.98
2023-01-04T05:25:29.561Z,0.70
2023-01-04T05:27:56.201Z,0.82
2023-01-04T05:30:41.971Z,0.90
2023-01-04T05:33:08.581Z,0.80
2023-01-04T05:35:35.222Z,0.90
2023-01-04T05:38:01.789Z,0.80
2023-01-04T05:40:28.667Z,0.65
2023-01-04T05:42:55.269Z,0.70
2023-01-04T05:45:21.796Z,0.95
2023-01-04T05:47:52.669Z,1.10
2023-01-04T05:50:21.409Z,0.70
2023-01-04T05:52:48.518Z,0.73
2023-01-04T05:55:15.271Z,0.85
2023-01-04T05:57:42.188Z,0.68
2023-01-04T06:00:11.301Z,0.70
2023-01-04T06:02:38.146Z,0.75
2023-01-04T06:05:05.723Z,0.80
2023-01-04T06:07:32.566Z,0.52
2023-01-04T06:09:59.277Z,0.80
2023-01-04T06:12:26.163Z,0.75
2023-01-04T06:14:52.706Z,0.70
2023-01-04T06:17:19.718Z,0.70
2023-01-04T06:19:46.403Z,1.05
2023-01-04T06:22:12.927Z,0.80
2023-01-04T06:24:39.428Z,0.70
2023-01-04T06:27:05.921Z,0.57
2023-01-04T06:29:32.435Z,0.82
2023-01-04T06:31:58.975Z,0.77
2023-01-04T06:34:30.832Z,0.60
2023-01-04T06:36:57.837Z,0.93
2023-01-04T06:39:24.434Z,0.70
2023-01-04T06:41:50.982Z,0.82
2023-01-04T06:44:17.477Z,0.57
2023-01-04T06:46:44.447Z,0.80
2023-01-04T06:49:10.996Z,0.70
2023-01-04T06:51:37.555Z,0.85
2023-01-04T06:54:04.198Z,0.90
2023-01-04T06:56:32.069Z,0.73
2023-01-04T06:58:58.737Z,0.68
2023-01-04T07:01:25.478Z,0.80
2023-01-04T07:03:52.226Z,0.73
2023-01-04T07:06:18.799Z,0.80
2023-01-04T07:08:47.552Z,1.00
2023-01-04T07:11:14.154Z,0.80
2023-01-04T07:13:40.655Z,0.93
2023-01-04T07:16:07.384Z,0.70
2023-01-04T07:18:33.946Z,0.90
2023-01-04T07:21:00.469Z,0.70
2023-01-04T07:23:26.998Z,0.82
2023-01-04T07:25:53.615Z,0.75
2023-01-04T07:28:38.822Z,0.68
2023-01-04T07:31:08.649Z,0.73
2023-01-04T07:33:35.338Z,0.75
2023-01-04T07:36:06.538Z,0.70
2023-01-04T07:38:35.000Z,1.00
2023-01-04T07:41:01.676Z,0.70
2023-01-04T07:43:28.896Z,0.82
2023-01-04T07:45:55.702Z,0.80
2023-01-04T07:48:22.338Z,1.08
2023-01-04T07:50:49.783Z,1.13
2023-01-04T07:53:16.373Z,0.80
2023-01-04T07:55:42.964Z,0.85
2023-01-04T07:58:09.466Z,0.73
2023-01-04T08:00:36.024Z,0.80
2023-01-04T08:03:02.703Z,0.80
2023-01-04T08:05:32.872Z,1.08
2023-01-04T08:07:59.673Z,0.77
2023-01-04T08:10:26.528Z,0.85
2023-01-04T08:12:53.113Z,0.95
2023-01-04T08:15:19.688Z,0.90
2023-01-04T08:17:46.231Z,0.77
2023-01-04T08:20:12.776Z,0.80
2023-01-04T08:22:39.468Z,0.75
2023-01-04T08:25:07.001Z,0.70
2023-01-04T08:27:33.844Z,0.75
2023-01-04T08:30:00.425Z,0.93
2023-01-04T08:32:26.979Z,0.80
2023-01-04T08:34:54.230Z,0.60
2023-01-04T08:37:21.030Z,1.13
2023-01-04T08:39:49.569Z,0.80
2023-01-04T08:42:22.408Z,0.60
2023-01-04T08:44:59.166Z,0.80
2023-01-04T08:47:26.805Z,0.70
2023-01-04T08:49:53.381Z,0.75
2023-01-04T08:52:19.914Z,0.60
2023-01-04T08:54:46.419Z,1.00
2023-01-04T08:57:13.027Z,0.50
2023-01-04T08:59:39.699Z,0.85
2023-01-04T09:02:27.033Z,0.80
2023-01-04T09:04:59.581Z,0.50
2023-01-04T09:07:29.191Z,0.80
2023-01-04T09:09:55.738Z,1.20
2023-01-04T09:12:22.292Z,1.52
2023-01-04T09:14:48.807Z,2.38
2023-01-04T09:17:15.563Z,3.40
2023-01-04T09:19:42.104Z,3.97
2023-01-04T09:22:08.785Z,4.22
2023-01-04T09:24:35.507Z,5.35
2023-01-04T09:27:02.190Z,5.47
2023-01-04T09:29:28.687Z,6.07
2023-01-04T09:31:55.320Z,8.15
2023-01-04T09:34:22.413Z,8.25
2023-01-04T09:36:49.231Z,9.45
2023-01-04T09:39:22.254Z,9.15
2023-01-04T09:41:55.971Z,9.85
2023-01-04T09:48:07.282Z,10.95
2023-01-04T09:50:44.466Z,10.95
2023-01-04T09:53:28.050Z,12.20
2023-01-04T09:56:08.708Z,12.45
2023-01-04T09:58:38.355Z,13.43
2023-01-04T10:01:15.206Z,14.13
2023-01-04T10:04:13.143Z,13.80
2023-01-04T10:06:39.717Z,13.95
2023-01-04T10:09:14.233Z,15.73
2023-01-04T10:12:12.807Z,16.20
2023-01-04T10:14:40.466Z,17.55
2023-01-04T10:17:18.050Z,18.85
2023-01-04T10:23:01.541Z,20.10
2023-01-04T10:26:01.121Z,19.85
2023-01-04T10:29:11.939Z,21.67
2023-01-04T10:31:50.096Z,22.23
2023-01-04T10:34:30.782Z,22.73
2023-01-04T10:37:00.839Z,22.20
2023-01-04T10:39:35.919Z,22.90
2023-01-04T10:42:23.672Z,22.58
2023-01-04T10:45:16.468Z,23.23
2023-01-04T10:47:47.646Z,21.73
2023-01-04T10:50:41.831Z,23.08
2023-01-04T10:53:47.357Z,24.00
2023-01-04T10:56:46.281Z,22.95
2023-01-04T10:59:31.199Z,23.73
2023-01-04T11:02:08.719Z,22.92
2023-01-04T11:04:51.259Z,24.77
2023-01-04T11:07:24.742Z,26.40
2023-01-04T11:09:52.133Z,25.05
2023-01-04T11:12:22.537Z,25.67
2023-01-04T11:14:51.160Z,25.92
2023-01-04T11:17:18.525Z,24.63
2023-01-04T11:19:45.176Z,24.80
2023-01-04T11:22:21.359Z,24.98
2023-01-04T11:25:32.997Z,25.60
2023-01-04T11:28:08.025Z,24.08
2023-01-04T11:31:09.433Z,24.48
2023-01-04T11:34:00.743Z,24.80
2023-01-04T11:36:35.251Z,23.88
2023-01-04T11:39:02.204Z,23.73
2023-01-04T11:41:28.937Z,23.75
2023-01-04T11:44:01.346Z,24.17
2023-01-04T11:46:29.211Z,24.55
2023-01-04T11:48:56.475Z,25.00
2023-01-04T11:51:29.058Z,23.70
2023-01-04T11:54:19.416Z,24.27
2023-01-04T11:57:11.421Z,26.13
2023-01-04T11:59:38.835Z,25.30
2023-01-04T12:02:58.668Z,27.15
2023-01-04T12:05:28.288Z,27.33
2023-01-04T12:07:56.123Z,27.35
2023-01-04T12:10:26.679Z,28.65
2023-01-04T12:13:01.263Z,29.42
2023-01-04T12:15:33.159Z,29.10
2023-01-04T12:18:11.532Z,29.23
2023-01-04T12:20:38.120Z,28.23
2023-01-04T12:23:05.567Z,28.80
2023-01-04T12:25:45.868Z,28.17
2023-01-04T12:28:42.466Z,31.27
2023-01-04T12:31:22.145Z,26.55
2023-01-04T12:33:54.228Z,26.25
2023-01-04T12:36:41.155Z,26.52
2023-01-04T12:39:17.118Z,25.45
2023-01-04T12:42:00.248Z,23.77
2023-01-04T12:44:36.287Z,23.40
2023-01-04T12:47:47.353Z,23.88
2023-01-04T12:50:23.093Z,21.35
2023-01-04T12:53:29.352Z,21.80
2023-01-04T12:55:45.787Z,20.75
2023-01-04T12:58:43.851Z,20.70
2023-01-04T13:01:26.553Z,19.73
2023-01-04T13:04:48.864Z,17.42
2023-01-04T13:07:25.884Z,18.05
2023-01-04T13:09:57.502Z,16.63
2023-01-04T13:12:38.955Z,15.65
2023-01-04T13:15:24.523Z,15.40
2023-01-04T13:17:52.413Z,15.43
2023-01-04T13:20:25.797Z,14.55
2023-01-04T13:22:55.630Z,15.30
2023-01-04T13:25:24.168Z,16.85
2023-01-04T13:28:00.208Z,18.80
2023-01-04T13:30:30.982Z,18.90
2023-01-04T13:33:25.015Z,19.60
2023-01-04T13:35:57.689Z,24.48
2023-01-04T13:38:24.223Z,31.13
2023-01-04T13:40:50.789Z,35.03
2023-01-04T13:43:47.398Z,38.42
2023-01-04T13:46:23.860Z,40.85
2023-01-04T13:48:53.570Z,41.90
2023-01-04T13:51:32.105Z,39.63
2023-01-04T13:54:03.278Z,41.55
2023-01-04T13:56:32.489Z,38.30
2023-01-04T13:58:59.900Z,41.35
2023-01-04T14:01:29.801Z,40.08
2023-01-04T14:04:02.477Z,38.60
2023-01-04T14:06:42.041Z,37.60
2023-01-04T14:09:11.490Z,35.00
2023-01-04T14:12:06.202Z,35.80
2023-01-04T14:14:58.366Z,34.90
2023-01-04T14:17:27.831Z,28.77
2023-01-04T14:20:26.573Z,28.23
2023-01-04T14:22:57.644Z,27.55
2023-01-04T14:25:38.505Z,30.27
2023-01-04T14:28:24.801Z,32.83
2023-01-04T14:31:06.842Z,37.03
2023-01-04T14:33:36.282Z,37.10
2023-01-04T14:36:29.127Z,34.55
2023-01-04T14:39:08.021Z,37.60
2023-01-04T14:41:37.427Z,35.88
2023-01-04T14:44:13.166Z,37.63
2023-01-04T14:46:41.874Z,38.05
2023-01-04T14:49:08.810Z,37.65
2023-01-04T14:51:46.829Z,37.47
2023-01-04T14:54:20.383Z,34.95
2023-01-04T14:56:50.919Z,33.85
2023-01-04T14:59:17.589Z,33.58
2023-01-04T15:01:44.380Z,33.75
2023-01-04T15:04:11.056Z,32.22
2023-01-04T15:06:47.393Z,30.40
2023-01-04T15:09:13.951Z,30.10
2023-01-04T15:11:40.571Z,30.95
2023-01-04T15:14:07.113Z,35.28
2023-01-04T15:16:33.748Z,35.13
2023-01-04T15:19:00.310Z,37.28
2023-01-04T15:21:26.991Z,36.42
2023-01-04T15:23:53.574Z,35.63
2023-01-04T15:26:20.126Z,35.80
2023-01-04T15:28:46.690Z,34.80
2023-01-04T15:31:14.872Z,36.33
2023-01-04T15:33:41.604Z,33.92
2023-01-04T15:36:16.228Z,34.17
2023-01-04T15:38:46.672Z,32.55
2023-01-04T15:41:36.785Z,31.85
2023-01-04T15:44:04.558Z,30.00
2023-01-04T15:46:31.361Z,30.30
2023-01-04T15:48:57.972Z,28.10
2023-01-04T15:51:24.545Z,29.40
2023-01-04T15:53:52.998Z,28.83
2023-01-04T15:56:20.357Z,27.52
2023-01-04T15:58:53.637Z,26.13
2023-01-04T16:01:20.977Z,27.05
2023-01-04T16:03:51.558Z,25.35
2023-01-04T16:06:21.105Z,25.93
2023-01-04T16:08:50.556Z,26.80
2023-01-04T16:11:22.938Z,26.45
2023-01-04T16:13:51.309Z,25.35
2023-01-04T16:16:19.980Z,24.30
2023-01-04T16:18:48.479Z,23.75
2023-01-04T16:21:16.063Z,24.30
2023-01-04T16:23:42.603Z,23.48
2023-01-04T16:26:12.523Z,22.02
2023-01-04T16:28:39.215Z,23.20
2023-01-04T16:31:06.861Z,22.05
2023-01-04T16:33:35.498Z,21.75
2023-01-04T16:36:07.239Z,19.67
2023-01-04T16:38:42.162Z,21.85
2023-01-04T16:41:12.339Z,20.25
2023-01-04T16:43:47.758Z,18.98
2023-01-04T16:46:33.687Z,17.83
2023-01-04T16:49:06.506Z,17.35
2023-01-04T16:51:35.082Z,16.70
2023-01-04T16:54:03.839Z,16.40
2023-01-04T16:56:31.395Z,17.65
2023-01-04T16:58:58.362Z,16.23
2023-01-04T17:01:28.089Z,15.65
2023-01-04T17:03:59.688Z,18.83
2023-01-04T17:06:31.288Z,22.58
2023-01-04T17:08:58.947Z,25.88
2023-01-04T17:12:11.465Z,27.40
2023-01-04T17:14:14.553Z,30.83
2023-01-04T17:16:42.208Z,29.90
2023-01-04T17:19:09.773Z,30.00
2023-01-04T17:21:36.615Z,29.38
2023-01-04T17:24:03.867Z,28.52
2023-01-04T17:26:32.167Z,27.70
2023-01-04T17:29:01.173Z,28.77
2023-01-04T17:31:30.974Z,27.38
2023-01-04T17:33:57.780Z,27.90
2023-01-04T17:36:24.640Z,26.73
2023-01-04T17:38:51.682Z,25.20
2023-01-04T17:41:25.432Z,25.90
2023-01-04T17:46:23.751Z,25.38
2023-01-04T17:49:17.763Z,26.27
2023-01-04T17:51:39.775Z,24.95
2023-01-04T17:54:08.461Z,23.65
2023-01-04T17:56:37.137Z,25.42
2023-01-04T17:59:06.888Z,27.02
2023-01-04T18:01:35.096Z,29.92
2023-01-04T18:04:03.058Z,31.27
2023-01-04T18:06:33.119Z,30.92
2023-01-04T18:09:01.047Z,32.63
2023-01-04T18:11:27.929Z,31.35
2023-01-04T18:13:54.611Z,34.13
2023-01-04T18:16:26.528Z,30.23
2023-01-04T18:18:58.178Z,32.25
2023-01-04T18:21:28.837Z,33.28
2023-01-04T18:24:34.840Z,32.83
2023-01-04T18:27:20.016Z,30.38
2023-01-04T18:29:34.278Z,31.05
2023-01-04T18:32:00.981Z,30.98
2023-01-04T18:34:27.722Z,28.75
2023-01-04T18:36:54.351Z,29.45
2023-01-04T18:39:21.592Z,26.15
2023-01-04T18:41:48.105Z,27.30
2023-01-04T18:44:32.779Z,27.25
2023-01-04T18:47:00.246Z,24.73
2023-01-04T18:49:26.814Z,24.52
2023-01-04T18:51:53.364Z,24.35
2023-01-04T18:54:20.594Z,24.90
2023-01-04T18:56:47.758Z,22.55
2023-01-04T18:59:17.288Z,21.73
2023-01-04T19:01:45.182Z,21.23
2023-01-04T19:04:12.771Z,20.58
2023-01-04T19:06:40.438Z,19.60
2023-01-04T19:09:07.616Z,19.88
2023-01-04T19:11:34.594Z,18.15
2023-01-04T19:14:01.858Z,17.45
2023-01-04T19:16:31.072Z,17.30
2023-01-04T19:18:59.232Z,19.60
2023-01-04T19:21:25.858Z,23.88
2023-01-04T19:23:52.716Z,25.15
2023-01-04T19:26:19.645Z,27.58
2023-01-04T19:28:46.213Z,28.42
2023-01-04T19:31:14.193Z,30.05
2023-01-04T19:33:41.066Z,31.13
2023-01-04T19:36:09.342Z,30.33
2023-01-04T19:38:36.476Z,31.13
2023-01-04T19:41:03.902Z,29.48
2023-01-04T19:43:30.635Z,29.40
2023-01-04T19:45:57.316Z,29.42
2023-01-04T19:48:23.976Z,26.75
2023-01-04T19:51:03.521Z,27.05
2023-01-04T19:53:30.023Z,27.00
2023-01-04T19:55:57.224Z,25.17
2023-01-04T19:58:23.787Z,24.48
2023-01-04T20:00:54.565Z,25.02
2023-01-04T20:03:22.582Z,23.83
2023-01-04T20:05:49.919Z,24.00
2023-01-04T20:08:16.471Z,21.70
2023-01-04T20:10:43.185Z,21.85
2023-01-04T20:13:09.777Z,20.98
2023-01-04T20:15:40.085Z,21.13
2023-01-04T20:18:13.481Z,19.27
2023-01-04T20:20:47.228Z,18.48
2023-01-04T20:23:15.003Z,17.38
2023-01-04T20:25:43.231Z,17.70
2023-01-04T20:28:09.819Z,16.45
2023-01-04T20:30:36.956Z,16.60
2023-01-04T20:33:03.623Z,14.57
2023-01-04T20:35:31.286Z,16.33
2023-01-04T20:37:58.478Z,15.85
2023-01-04T20:40:25.796Z,15.25
2023-01-04T20:43:11.044Z,22.13
2023-01-04T20:45:47.721Z,22.42
2023-01-04T20:48:15.139Z,21.95
2023-01-04T20:50:42.247Z,25.75
2023-01-04T20:53:08.884Z,26.17
2023-01-04T20:55:40.715Z,27.65
2023-01-04T20:58:12.136Z,27.17
2023-01-04T21:00:39.509Z,26.33
2023-01-04T21:03:08.304Z,27.02
2023-01-04T21:05:40.464Z,25.38
2023-01-04T21:08:07.453Z,27.13
2023-01-04T21:10:35.049Z,24.80
2023-01-04T21:13:01.641Z,25.50
2023-01-04T21:15:28.255Z,25.85
2023-01-04T21:17:54.833Z,24.08
2023-01-04T21:20:21.768Z,24.92
2023-01-04T21:22:48.380Z,24.10
2023-01-04T21:25:15.740Z,23.90
2023-01-04T21:27:42.279Z,23.52
2023-01-04T21:30:09.318Z,22.27
2023-01-04T21:32:35.907Z,21.92
2023-01-04T21:35:02.452Z,20.63
2023-01-04T21:37:29.977Z,22.27
2023-01-04T21:39:56.779Z,21.70
2023-01-04T21:42:23.293Z,20.92
2023-01-04T21:44:49.797Z,21.42
2023-01-04T21:47:16.333Z,20.35
2023-01-04T21:49:43.958Z,21.50
2023-01-04T21:52:11.381Z,20.80
2023-01-04T21:54:39.158Z,22.67
2023-01-04T21:57:08.939Z,22.60
2023-01-04T21:59:36.104Z,24.95
2023-01-04T22:02:03.365Z,25.30
2023-01-04T22:04:30.183Z,24.17
2023-01-04T22:06:56.861Z,23.75
2023-01-04T22:09:23.507Z,26.42
2023-01-04T22:11:50.210Z,26.38
2023-01-04T22:14:18.136Z,26.98
2023-01-04T22:16:44.930Z,26.42
2023-01-04T22:19:13.423Z,25.48
2023-01-04T22:21:40.216Z,25.80
2023-01-04T22:24:07.850Z,26.75
2023-01-04T22:26:34.495Z,25.42
2023-01-04T22:29:01.556Z,27.10
2023-01-04T22:31:28.474Z,27.48
2023-01-04T22:33:55.144Z,28.13
2023-01-04T22:36:23.749Z,27.20
2023-01-04T22:38:55.554Z,26.25
2023-01-04T22:41:25.065Z,25.73
2023-01-04T22:44:00.223Z,27.00
2023-01-04T22:46:28.088Z,24.58
2023-01-04T22:48:55.300Z,25.00
2023-01-04T22:51:22.920Z,24.40
2023-01-04T22:53:52.733Z,24.40
2023-01-04T22:56:21.565Z,23.63
2023-01-04T22:58:53.334Z,23.40
2023-01-04T23:01:22.199Z,22.27
2023-01-04T23:03:49.121Z,23.08
2023-01-04T23:06:15.901Z,23.90
2023-01-04T23:08:42.443Z,24.38
2023-01-04T23:11:15.579Z,24.67
2023-01-04T23:13:42.465Z,24.25
2023-01-04T23:16:11.683Z,24.25
2023-01-04T23:18:38.585Z,24.23
2023-01-04T23:21:06.021Z,24.95
2023-01-04T23:23:32.693Z,26.48
2023-01-04T23:26:14.194Z,24.50
2023-01-04T23:28:41.193Z,24.25
2023-01-04T23:31:10.192Z,24.20
2023-01-04T23:33:37.295Z,22.77
2023-01-04T23:36:20.255Z,24.83
2023-01-04T23:38:58.599Z,22.75
2023-01-04T23:41:44.382Z,24.33
2023-01-04T23:44:14.152Z,22.60
2023-01-04T23:46:41.204Z,22.38
2023-01-04T23:49:07.726Z,23.23
2023-01-04T23:51:34.271Z,21.42
2023-01-04T23:54:00.782Z,20.60
2023-01-04T23:56:27.319Z,21.02
2023-01-04T23:58:53.856Z,21.42
